sensor_id;sensor_type;location;lat;lon;timestamp;temperature;humidity
23769;DHT22;12064;50.890;5.424;2022-09-09T00:04:35;28.50;67.40
23769;DHT22;12064;50.890;5.424;2022-09-09T00:22:25;28.60;67.40
23769;DHT22;12064;50.890;5.424;2022-09-09T00:31:23;28.50;67.60
23769;DHT22;12064;50.890;5.424;2022-09-09T00:40:35;28.60;67.40
23769;DHT22;12064;50.890;5.424;2022-09-09T00:49:37;28.40;67.80
23769;DHT22;12064;50.890;5.424;2022-09-09T00:58:31;28.50;67.60
23769;DHT22;12064;50.890;5.424;2022-09-09T01:07:25;28.40;68.60
23769;DHT22;12064;50.890;5.424;2022-09-09T01:16:20;28.40;67.80
23769;DHT22;12064;50.890;5.424;2022-09-09T01:25:56;28.40;67.80
23769;DHT22;12064;50.890;5.424;2022-09-09T01:34:40;28.50;67.70
23769;DHT22;12064;50.890;5.424;2022-09-09T01:43:33;28.40;67.70
23769;DHT22;12064;50.890;5.424;2022-09-09T01:52:29;28.50;67.70
23769;DHT22;12064;50.890;5.424;2022-09-09T02:10:55;28.70;67.50
23769;DHT22;12064;50.890;5.424;2022-09-09T02:19:51;28.60;67.50
23769;DHT22;12064;50.890;5.424;2022-09-09T02:28:51;28.70;67.50
23769;DHT22;12064;50.890;5.424;2022-09-09T02:37:44;28.50;67.50
23769;DHT22;12064;50.890;5.424;2022-09-09T02:56:04;28.50;67.70
23769;DHT22;12064;50.890;5.424;2022-09-09T03:04:56;28.50;67.80
23769;DHT22;12064;50.890;5.424;2022-09-09T03:13:47;28.50;67.70
23769;DHT22;12064;50.890;5.424;2022-09-09T03:22:40;28.50;67.70
23769;DHT22;12064;50.890;5.424;2022-09-09T03:31:37;28.50;67.60
23769;DHT22;12064;50.890;5.424;2022-09-09T03:40:28;28.40;67.60
23769;DHT22;12064;50.890;5.424;2022-09-09T03:49:19;28.40;67.90
23769;DHT22;12064;50.890;5.424;2022-09-09T03:58:16;28.50;67.90
23769;DHT22;12064;50.890;5.424;2022-09-09T04:07:09;28.50;67.90
23769;DHT22;12064;50.890;5.424;2022-09-09T04:16:05;28.50;67.80
23769;DHT22;12064;50.890;5.424;2022-09-09T04:24:57;28.50;67.80
23769;DHT22;12064;50.890;5.424;2022-09-09T04:33:49;28.50;67.90
23769;DHT22;12064;50.890;5.424;2022-09-09T04:42:43;28.60;67.80
23769;DHT22;12064;50.890;5.424;2022-09-09T04:51:34;28.50;67.90
23769;DHT22;12064;50.890;5.424;2022-09-09T05:00:39;28.50;67.80
23769;DHT22;12064;50.890;5.424;2022-09-09T05:09:32;28.40;67.70
23769;DHT22;12064;50.890;5.424;2022-09-09T05:18:25;28.40;67.70
23769;DHT22;12064;50.890;5.424;2022-09-09T05:27:19;28.30;68.10
23769;DHT22;12064;50.890;5.424;2022-09-09T05:36:12;28.20;66.70
23769;DHT22;12064;50.890;5.424;2022-09-09T05:45:04;28.20;66.40
23769;DHT22;12064;50.890;5.424;2022-09-09T05:53:54;28.00;66.20
23769;DHT22;12064;50.890;5.424;2022-09-09T06:02:51;27.80;65.90
23769;DHT22;12064;50.890;5.424;2022-09-09T06:11:48;27.90;65.50
23769;DHT22;12064;50.890;5.424;2022-09-09T06:20:38;27.80;65.00
23769;DHT22;12064;50.890;5.424;2022-09-09T06:29:29;27.60;65.50
23769;DHT22;12064;50.890;5.424;2022-09-09T06:38:20;27.50;65.60
23769;DHT22;12064;50.890;5.424;2022-09-09T06:47:27;27.20;65.90
23769;DHT22;12064;50.890;5.424;2022-09-09T06:56:33;27.40;65.50
23769;DHT22;12064;50.890;5.424;2022-09-09T07:05:32;27.50;65.20
23769;DHT22;12064;50.890;5.424;2022-09-09T07:14:23;27.70;65.40
23769;DHT22;12064;50.890;5.424;2022-09-09T07:23:13;27.70;65.00
23769;DHT22;12064;50.890;5.424;2022-09-09T07:32:05;27.60;65.10
23769;DHT22;12064;50.890;5.424;2022-09-09T07:41:04;27.10;65.40
23769;DHT22;12064;50.890;5.424;2022-09-09T07:50:03;27.30;65.70
23769;DHT22;12064;50.890;5.424;2022-09-09T07:59:01;27.60;65.30
23769;DHT22;12064;50.890;5.424;2022-09-09T08:07:54;27.60;65.20
23769;DHT22;12064;50.890;5.424;2022-09-09T08:16:47;27.70;66.00
23769;DHT22;12064;50.890;5.424;2022-09-09T08:25:38;27.60;65.10
23769;DHT22;12064;50.890;5.424;2022-09-09T08:34:28;27.70;65.80
23769;DHT22;12064;50.890;5.424;2022-09-09T08:43:22;27.70;66.10
23769;DHT22;12064;50.890;5.424;2022-09-09T08:52:25;27.60;65.60
23769;DHT22;12064;50.890;5.424;2022-09-09T09:01:45;27.50;65.80
23769;DHT22;12064;50.890;5.424;2022-09-09T09:10:51;27.70;65.40
23769;DHT22;12064;50.890;5.424;2022-09-09T09:19:46;27.70;65.10
23769;DHT22;12064;50.890;5.424;2022-09-09T09:28:47;27.90;64.60
23769;DHT22;12064;50.890;5.424;2022-09-09T09:37:40;27.80;65.10
23769;DHT22;12064;50.890;5.424;2022-09-09T09:46:31;28.10;65.40
23769;DHT22;12064;50.890;5.424;2022-09-09T09:55:23;28.00;66.40
23769;DHT22;12064;50.890;5.424;2022-09-09T10:04:27;28.00;66.20
23769;DHT22;12064;50.890;5.424;2022-09-09T10:13:28;28.00;66.40
23769;DHT22;12064;50.890;5.424;2022-09-09T10:22:27;28.10;66.00
23769;DHT22;12064;50.890;5.424;2022-09-09T10:31:25;28.00;66.50
23769;DHT22;12064;50.890;5.424;2022-09-09T10:41:12;28.00;66.20
23769;DHT22;12064;50.890;5.424;2022-09-09T10:49:50;27.80;67.60
23769;DHT22;12064;50.890;5.424;2022-09-09T10:58:51;28.00;68.00
23769;DHT22;12064;50.890;5.424;2022-09-09T11:08:05;27.90;68.90
23769;DHT22;12064;50.890;5.424;2022-09-09T11:17:44;27.60;70.60
23769;DHT22;12064;50.890;5.424;2022-09-09T11:26:51;27.90;69.10
23769;DHT22;12064;50.890;5.424;2022-09-09T11:44:42;28.10;69.00
23769;DHT22;12064;50.890;5.424;2022-09-09T11:53:47;28.20;68.80
23769;DHT22;12064;50.890;5.424;2022-09-09T12:02:48;28.20;68.90
23769;DHT22;12064;50.890;5.424;2022-09-09T12:12:06;28.10;69.00
23769;DHT22;12064;50.890;5.424;2022-09-09T12:30:58;27.70;71.00
23769;DHT22;12064;50.890;5.424;2022-09-09T12:40:00;28.30;68.90
23769;DHT22;12064;50.890;5.424;2022-09-09T12:48:53;28.10;69.20
23769;DHT22;12064;50.890;5.424;2022-09-09T12:58:06;28.50;68.50
23769;DHT22;12064;50.890;5.424;2022-09-09T13:07:06;28.40;68.50
23769;DHT22;12064;50.890;5.424;2022-09-09T13:15:58;28.50;68.20
23769;DHT22;12064;50.890;5.424;2022-09-09T13:25:05;28.60;67.90
23769;DHT22;12064;50.890;5.424;2022-09-09T13:33:56;28.60;67.70
23769;DHT22;12064;50.890;5.424;2022-09-09T13:42:52;28.70;67.70
23769;DHT22;12064;50.890;5.424;2022-09-09T13:51:48;28.50;67.80
23769;DHT22;12064;50.890;5.424;2022-09-09T14:00:53;28.30;69.30
23769;DHT22;12064;50.890;5.424;2022-09-09T14:09:44;28.30;70.10
23769;DHT22;12064;50.890;5.424;2022-09-09T14:18:52;28.40;69.90
23769;DHT22;12064;50.890;5.424;2022-09-09T14:27:42;28.20;69.80
23769;DHT22;12064;50.890;5.424;2022-09-09T14:36:41;28.60;69.40
23769;DHT22;12064;50.890;5.424;2022-09-09T14:45:32;28.40;69.10
23769;DHT22;12064;50.890;5.424;2022-09-09T14:54:26;28.40;68.70
23769;DHT22;12064;50.890;5.424;2022-09-09T15:03:20;28.40;68.80
23769;DHT22;12064;50.890;5.424;2022-09-09T15:12:13;28.30;68.50
23769;DHT22;12064;50.890;5.424;2022-09-09T15:21:04;28.40;68.40
23769;DHT22;12064;50.890;5.424;2022-09-09T15:29:55;28.30;68.20
23769;DHT22;12064;50.890;5.424;2022-09-09T15:38:47;28.30;68.20
23769;DHT22;12064;50.890;5.424;2022-09-09T15:47:40;28.30;68.10
23769;DHT22;12064;50.890;5.424;2022-09-09T15:56:31;28.30;68.00
23769;DHT22;12064;50.890;5.424;2022-09-09T16:05:22;28.30;68.10
23769;DHT22;12064;50.890;5.424;2022-09-09T16:14:16;28.30;68.10
23769;DHT22;12064;50.890;5.424;2022-09-09T16:23:06;28.40;68.10
23769;DHT22;12064;50.890;5.424;2022-09-09T16:31:57;28.20;67.90
23769;DHT22;12064;50.890;5.424;2022-09-09T16:40:59;28.30;68.60
23769;DHT22;12064;50.890;5.424;2022-09-09T16:49:50;28.20;69.40
23769;DHT22;12064;50.890;5.424;2022-09-09T16:58:43;27.90;69.90
23769;DHT22;12064;50.890;5.424;2022-09-09T17:07:35;28.10;70.30
23769;DHT22;12064;50.890;5.424;2022-09-09T17:16:31;28.20;70.60
23769;DHT22;12064;50.890;5.424;2022-09-09T17:25:22;28.00;70.80
23769;DHT22;12064;50.890;5.424;2022-09-09T17:34:16;28.10;71.00
23769;DHT22;12064;50.890;5.424;2022-09-09T17:43:07;28.00;70.90
23769;DHT22;12064;50.890;5.424;2022-09-09T17:52:01;27.90;70.80
23769;DHT22;12064;50.890;5.424;2022-09-09T18:10:07;27.90;70.50
23769;DHT22;12064;50.890;5.424;2022-09-09T18:18:58;28.10;70.00
23769;DHT22;12064;50.890;5.424;2022-09-09T18:27:48;28.20;69.70
23769;DHT22;12064;50.890;5.424;2022-09-09T18:36:46;28.20;69.60
23769;DHT22;12064;50.890;5.424;2022-09-09T18:45:36;28.10;69.60
23769;DHT22;12064;50.890;5.424;2022-09-09T18:54:28;27.90;69.80
23769;DHT22;12064;50.890;5.424;2022-09-09T19:03:20;27.90;69.80
23769;DHT22;12064;50.890;5.424;2022-09-09T19:12:11;27.90;69.90
23769;DHT22;12064;50.890;5.424;2022-09-09T19:30:08;27.60;71.50
23769;DHT22;12064;50.890;5.424;2022-09-09T19:38:59;27.30;72.50
23769;DHT22;12064;50.890;5.424;2022-09-09T19:47:53;27.50;72.10
23769;DHT22;12064;50.890;5.424;2022-09-09T19:56:44;27.50;71.80
23769;DHT22;12064;50.890;5.424;2022-09-09T20:05:35;27.60;71.50
23769;DHT22;12064;50.890;5.424;2022-09-09T20:14:26;28.50;69.80
23769;DHT22;12064;50.890;5.424;2022-09-09T20:23:17;28.80;69.40
23769;DHT22;12064;50.890;5.424;2022-09-09T20:32:08;28.70;69.40
23769;DHT22;12064;50.890;5.424;2022-09-09T20:41:03;28.80;69.60
23769;DHT22;12064;50.890;5.424;2022-09-09T20:49:54;28.60;69.90
23769;DHT22;12064;50.890;5.424;2022-09-09T20:58:45;29.00;69.60
23769;DHT22;12064;50.890;5.424;2022-09-09T21:07:38;29.00;69.90
23769;DHT22;12064;50.890;5.424;2022-09-09T21:16:29;29.20;69.50
23769;DHT22;12064;50.890;5.424;2022-09-09T21:25:19;29.00;68.10
23769;DHT22;12064;50.890;5.424;2022-09-09T21:34:10;28.80;68.40
23769;DHT22;12064;50.890;5.424;2022-09-09T21:43:03;28.70;68.60
23769;DHT22;12064;50.890;5.424;2022-09-09T21:51:54;28.50;68.60
23769;DHT22;12064;50.890;5.424;2022-09-09T22:00:47;28.50;68.90
23769;DHT22;12064;50.890;5.424;2022-09-09T22:09:38;28.50;68.70
23769;DHT22;12064;50.890;5.424;2022-09-09T22:18:29;28.40;68.80
23769;DHT22;12064;50.890;5.424;2022-09-09T22:27:21;28.40;68.60
23769;DHT22;12064;50.890;5.424;2022-09-09T22:36:14;28.40;68.80
23769;DHT22;12064;50.890;5.424;2022-09-09T22:45:05;28.30;68.80
23769;DHT22;12064;50.890;5.424;2022-09-09T22:53:59;28.30;68.90
23769;DHT22;12064;50.890;5.424;2022-09-09T23:02:50;28.30;68.90
23769;DHT22;12064;50.890;5.424;2022-09-09T23:11:41;28.20;69.50
23769;DHT22;12064;50.890;5.424;2022-09-09T23:20:36;28.20;69.10
23769;DHT22;12064;50.890;5.424;2022-09-09T23:29:27;28.10;69.10
23769;DHT22;12064;50.890;5.424;2022-09-09T23:38:17;28.20;68.90
23769;DHT22;12064;50.890;5.424;2022-09-09T23:47:08;28.10;68.80
23769;DHT22;12064;50.890;5.424;2022-09-09T23:56:03;28.10;69.10
